Time;durP1;ratioP1;P1;durP2;ratioP2;P2;SDS_P1;SDS_P2;PMS_P1;PMS_P2;Temp;Humidity;BMP_temperature;BMP_pressure;BME280_temperature;BME280_humidity;BME280_pressure;Samples;Min_cycle;Max_cycle;Signal;HPM_P1;HPM_P2
2023/07/05 00:00:13;;;;;;;;;;;;;;;;;;5047779;28;5014;-77
2023/07/05 00:02:38;;;;;;;;;;;;;;;;;;5046446;28;4967;-77
2023/07/05 00:05:04;;;;;;;;;;;;;;;;;;5047844;28;5070;-77
2023/07/05 00:07:30;;;;;;;;;;;;;;;;;;5045914;28;1199;-77
2023/07/05 00:09:55;;;;;;;;;;;;;;;;;;5047872;28;5112;-76
2023/07/05 00:12:22;;;;;;;;;;;;;;;;;;5047316;28;4737;-77
2023/07/05 00:14:47;;;;;;;;;;;;;;;;;;5047912;28;4661;-77
2023/07/05 00:17:12;;;;;;;;;;;;;;;;;;5043070;28;5275;-78
2023/07/05 00:19:39;;;;;;;;;;;;;;;;;;5048134;28;1332;-76
2023/07/05 00:22:04;;;;;;;;;;;;;;;;;;5046490;28;4919;-78
2023/07/05 00:24:29;;;;;;;;;;;;;;;;;;5048422;28;4469;-78
2023/07/05 00:26:55;;;;;;;;;;;;;;;;;;5050435;28;5036;-79
2023/07/05 00:29:20;;;;;;;;;;;;;;;;;;5048876;28;4494;-77
2023/07/05 00:31:45;;;;;;;;;;;;;;;;;;5052070;28;1154;-77
2023/07/05 00:34:10;;;;;;;;;;;;;;;;;;5050797;28;5405;-77
2023/07/05 00:36:36;;;;;;;;;;;;;;;;;;5066124;28;5094;-79
2023/07/05 00:39:01;;;;;;;;;;;;;;;;;;5065366;28;5011;-74
2023/07/05 00:41:26;;;;;;;;;;;;;;;;;;5051220;28;4986;-77
2023/07/05 00:43:51;;;;;;;;;;;;;;;;;;5051830;28;1160;-76
2023/07/05 00:46:18;;;;;;;;;;;;;;;;;;5050835;28;5033;-74
2023/07/05 00:48:54;;;;;;;;;;;;;;;;;;5066296;28;4957;-78
2023/07/05 00:51:21;;;;;;;;;;;;;;;;;;5043050;28;5222;-78
2023/07/05 00:53:46;;;;;;;;;;;;;;;;;;5050641;28;4648;-78
2023/07/05 00:56:15;;;;;;;;;;;;;;;;;;5050801;28;4990;-76
2023/07/05 00:58:41;;;;;;;;;;;;;;;;;;5066498;28;1910;-77
2023/07/05 01:01:06;;;;;;;;;;;;;;;;;;5050851;28;4482;-77
2023/07/05 01:03:31;;;;;;;;;;;;;;;;;;5042220;28;5093;-78
2023/07/05 01:05:57;;;;;;;;;;;;;;;;;;5050344;28;4952;-74
2023/07/05 01:08:23;;;;;;;;;;;;;;;;;;5068848;28;5186;-74
2023/07/05 01:10:51;;;;;;;;;;;;;;;;;;5051290;28;1105;-76
2023/07/05 01:13:20;;;;;;;;;;;;;;;;;;5062983;28;4471;-77
2023/07/05 01:15:47;;;;;;;;;;;;;;;;;;5065909;28;4847;-76
2023/07/05 01:18:18;;;;;;;;;;;;;;;;;;5031952;28;4716;-73
2023/07/05 01:20:50;;;;;;;;;;;;;;;;;;5050834;28;4932;-77
2023/07/05 01:23:15;;;;;;;;;;;;;;;;;;5032779;28;4976;-77
2023/07/05 01:25:51;;;;;;;;;;;;;;;;;;5048291;28;1113;-77
2023/07/05 01:28:22;;;;;;;;;;;;;;;;;;5046564;28;5036;-77
2023/07/05 01:30:53;;;;;;;;;;;;;;;;;;5049281;28;4563;-73
2023/07/05 01:33:19;;;;;;;;;;;;;;;;;;5050005;28;4463;-75
2023/07/05 01:35:45;;;;;;;;;;;;;;;;;;5067424;28;5084;-76
2023/07/05 01:38:11;;;;;;;;;;;;;;;;;;5064442;28;4705;-75
2023/07/05 01:40:39;;;;;;;;;;;;;;;;;;5065456;28;1285;-75
2023/07/05 01:43:10;;;;;;;;;;;;;;;;;;5049700;28;5021;-76
2023/07/05 01:45:38;;;;;;;;;;;;;;;;;;5029135;28;5015;-76
2023/07/05 01:48:06;;;;;;;;;;;;;;;;;;5049644;28;5242;-72
2023/07/05 01:50:41;;;;;;;;;;;;;;;;;;5031266;28;5099;-77
2023/07/05 01:53:07;;;;;;;;;;;;;;;;;;5050444;28;5084;-76
2023/07/05 01:55:43;;;;;;;;;;;;;;;;;;5050239;28;1159;-78
2023/07/05 01:58:11;;;;;;;;;;;;;;;;;;5032077;28;4462;-74
2023/07/05 02:00:37;;;;;;;;;;;;;;;;;;5063759;28;4444;-79
2023/07/05 02:03:07;;;;;;;;;;;;;;;;;;5064699;28;4472;-77
2023/07/05 02:05:33;;;;;;;;;;;;;;;;;;5064837;28;4878;-78
2023/07/05 02:07:59;;;;;;;;;;;;;;;;;;5024708;28;1133;-78
2023/07/05 02:10:24;;;;;;;;;;;;;;;;;;5049401;28;5010;-75
2023/07/05 02:12:50;;;;;;;;;;;;;;;;;;5047560;28;4664;-76
2023/07/05 02:15:15;;;;;;;;;;;;;;;;;;5048749;28;5074;-78
2023/07/05 02:17:40;;;;;;;;;;;;;;;;;;5048634;28;4536;-75
2023/07/05 02:20:06;;;;;;;;;;;;;;;;;;5049367;28;5126;-78
2023/07/05 02:22:31;;;;;;;;;;;;;;;;;;5049333;28;1220;-78
2023/07/05 02:24:56;;;;;;;;;;;;;;;;;;5023859;28;4474;-76
2023/07/05 02:27:22;;;;;;;;;;;;;;;;;;5046250;28;4674;-77
2023/07/05 02:29:47;;;;;;;;;;;;;;;;;;5047728;28;4959;-78
2023/07/05 02:32:12;;;;;;;;;;;;;;;;;;5038990;28;5041;-79
2023/07/05 02:34:38;;;;;;;;;;;;;;;;;;5048070;28;5024;-78
2023/07/05 02:37:03;;;;;;;;;;;;;;;;;;5048816;28;5245;-77
2023/07/05 02:39:28;;;;;;;;;;;;;;;;;;5048717;28;4672;-80
2023/07/05 02:41:54;;;;;;;;;;;;;;;;;;5053558;28;5328;-77
2023/07/05 02:44:19;;;;;;;;;;;;;;;;;;5047820;28;5170;-77
2023/07/05 02:46:44;;;;;;;;;;;;;;;;;;5049641;28;1226;-78
2023/07/05 02:49:09;;;;;;;;;;;;;;;;;;5048706;28;4964;-71
2023/07/05 02:51:35;;;;;;;;;;;;;;;;;;5048268;28;4448;-76
2023/07/05 02:54:00;;;;;;;;;;;;;;;;;;5048884;28;4447;-75
2023/07/05 02:56:25;;;;;;;;;;;;;;;;;;5047429;28;4483;-75
2023/07/05 02:58:51;;;;;;;;;;;;;;;;;;5048778;28;2203;-78
2023/07/05 03:01:17;;;;;;;;;;;;;;;;;;5063541;28;4424;-77
2023/07/05 03:03:43;;;;;;;;;;;;;;;;;;5046842;28;4465;-78
2023/07/05 03:06:08;;;;;;;;;;;;;;;;;;5044733;28;5095;-74
2023/07/05 03:08:33;;;;;;;;;;;;;;;;;;5048752;28;4414;-79
2023/07/05 03:10:58;;;;;;;;;;;;;;;;;;5042924;28;1328;-78
2023/07/05 03:13:29;;;;;;;;;;;;;;;;;;5048558;28;4836;-77
2023/07/05 03:15:54;;;;;;;;;;;;;;;;;;5048428;28;4469;-78
2023/07/05 03:18:20;;;;;;;;;;;;;;;;;;5047987;28;4528;-76
2023/07/05 03:20:46;;;;;;;;;;;;;;;;;;5063600;28;5065;-75
2023/07/05 03:23:11;;;;;;;;;;;;;;;;;;5048747;28;4460;-74
2023/07/05 03:25:36;;;;;;;;;;;;;;;;;;5048458;28;1146;-77
2023/07/05 03:28:02;;;;;;;;;;;;;;;;;;5046004;28;5353;-75
2023/07/05 03:30:27;;;;;;;;;;;;;;;;;;5047694;28;5046;-75
2023/07/05 03:32:52;;;;;;;;;;;;;;;;;;5046489;28;5130;-77
2023/07/05 03:35:18;;;;;;;;;;;;;;;;;;5047584;28;5048;-78
2023/07/05 03:37:43;;;;;;;;;;;;;;;;;;5048660;28;1915;-78
2023/07/05 03:40:08;;;;;;;;;;;;;;;;;;5048260;28;4468;-79
2023/07/05 03:42:35;;;;;;;;;;;;;;;;;;5051093;28;5168;-78
2023/07/05 03:45:00;;;;;;;;;;;;;;;;;;5048407;28;4989;-79
2023/07/05 03:47:26;;;;;;;;;;;;;;;;;;5047622;28;4830;-77
2023/07/05 03:49:52;;;;;;;;;;;;;;;;;;5049036;28;1350;-75
2023/07/05 03:52:17;;;;;;;;;;;;;;;;;;5047870;28;5052;-77
2023/07/05 03:54:42;;;;;;;;;;;;;;;;;;5047608;28;5088;-77
2023/07/05 03:57:07;;;;;;;;;;;;;;;;;;5046595;28;4718;-77
2023/07/05 03:59:33;;;;;;;;;;;;;;;;;;5048161;28;4643;-77
2023/07/05 04:01:59;;;;;;;;;;;;;;;;;;5047931;28;1137;-77
2023/07/05 04:04:25;;;;;;;;;;;;;;;;;;5051780;28;4876;-78
2023/07/05 04:06:50;;;;;;;;;;;;;;;;;;5051170;28;4675;-75
2023/07/05 04:09:15;;;;;;;;;;;;;;;;;;5052264;28;4443;-77
2023/07/05 04:11:40;;;;;;;;;;;;;;;;;;5055095;28;5256;-76
2023/07/05 04:14:06;;;;;;;;;;;;;;;;;;5066938;28;5016;-78
2023/07/05 04:16:31;;;;;;;;;;;;;;;;;;5051873;28;1097;-72
2023/07/05 04:18:56;;;;;;;;;;;;;;;;;;5052026;28;5166;-81
2023/07/05 04:21:22;;;;;;;;;;;;;;;;;;5048462;28;5175;-75
2023/07/05 04:23:47;;;;;;;;;;;;;;;;;;5067404;28;4473;-78
2023/07/05 04:26:13;;;;;;;;;;;;;;;;;;5052218;28;4451;-76
2023/07/05 04:28:39;;;;;;;;;;;;;;;;;;5047376;28;1226;-79
2023/07/05 04:31:05;;;;;;;;;;;;;;;;;;5051608;28;5108;-81
2023/07/05 04:33:30;;;;;;;;;;;;;;;;;;5052229;28;5005;-79
2023/07/05 04:35:57;;;;;;;;;;;;;;;;;;5051093;28;4899;-81
2023/07/05 04:38:22;;;;;;;;;;;;;;;;;;5051553;28;5041;-79
2023/07/05 04:40:47;;;;;;;;;;;;;;;;;;5052310;28;1085;-77
2023/07/05 04:43:12;;;;;;;;;;;;;;;;;;5043802;28;4617;-77
2023/07/05 04:45:38;;;;;;;;;;;;;;;;;;5045345;28;5140;-73
2023/07/05 04:48:03;;;;;;;;;;;;;;;;;;5050543;28;5068;-75
2023/07/05 04:50:28;;;;;;;;;;;;;;;;;;5049668;28;4689;-77
2023/07/05 04:52:54;;;;;;;;;;;;;;;;;;5050299;28;1150;-78
2023/07/05 04:55:20;;;;;;;;;;;;;;;;;;5050989;28;4790;-78
2023/07/05 04:57:45;;;;;;;;;;;;;;;;;;5046261;28;4630;-78
2023/07/05 05:00:11;;;;;;;;;;;;;;;;;;5050464;28;5843;-72
2023/07/05 05:02:37;;;;;;;;;;;;;;;;;;5046039;28;4867;-78
2023/07/05 05:05:03;;;;;;;;;;;;;;;;;;5046605;28;5022;-71
2023/07/05 05:07:28;;;;;;;;;;;;;;;;;;5050931;28;1121;-76
2023/07/05 05:09:53;;;;;;;;;;;;;;;;;;5050160;28;4988;-77
2023/07/05 05:12:18;;;;;;;;;;;;;;;;;;5049235;28;4684;-75
2023/07/05 05:14:44;;;;;;;;;;;;;;;;;;5049824;28;4799;-74
2023/07/05 05:17:09;;;;;;;;;;;;;;;;;;5042301;28;4511;-76
2023/07/05 05:19:34;;;;;;;;;;;;;;;;;;5050858;28;1118;-77
2023/07/05 05:21:59;;;;;;;;;;;;;;;;;;5050720;28;4972;-78
2023/07/05 05:24:25;;;;;;;;;;;;;;;;;;5048138;28;5026;-76
2023/07/05 05:26:50;;;;;;;;;;;;;;;;;;5043005;28;4463;-78
2023/07/05 05:29:15;;;;;;;;;;;;;;;;;;5050210;28;4965;-75
2023/07/05 05:31:40;;;;;;;;;;;;;;;;;;5051853;28;2411;-74
2023/07/05 05:34:06;;;;;;;;;;;;;;;;;;5045305;28;4965;-79
2023/07/05 05:36:31;;;;;;;;;;;;;;;;;;5045822;28;4581;-74
2023/07/05 05:38:56;;;;;;;;;;;;;;;;;;5043472;28;5102;-78
2023/07/05 05:41:21;;;;;;;;;;;;;;;;;;5046143;28;5082;-78
2023/07/05 05:43:50;;;;;;;;;;;;;;;;;;5047641;28;3214;-79
2023/07/05 05:46:15;;;;;;;;;;;;;;;;;;5045777;28;4921;-80
2023/07/05 05:48:40;;;;;;;;;;;;;;;;;;5050191;28;5010;-64
2023/07/05 05:51:05;;;;;;;;;;;;;;;;;;5046212;28;5201;-76
2023/07/05 05:53:31;;;;;;;;;;;;;;;;;;5047703;28;5067;-75
2023/07/05 05:55:56;;;;;;;;;;;;;;;;;;5047641;28;3242;-77
2023/07/05 05:58:22;;;;;;;;;;;;;;;;;;5047961;28;5086;-75
2023/07/05 06:00:47;;;;;;;;;;;;;;;;;;5063171;28;4960;-76
2023/07/05 06:03:12;;;;;;;;;;;;;;;;;;5048830;28;5001;-76
2023/07/05 06:05:37;;;;;;;;;;;;;;;;;;5048011;28;5166;-74
2023/07/05 06:08:03;;;;;;;;;;;;;;;;;;5047353;28;4536;-72
2023/07/05 06:10:28;;;;;;;;;;;;;;;;;;5048537;28;1230;-75
2023/07/05 06:12:53;;;;;;;;;;;;;;;;;;5046275;28;4419;-77
2023/07/05 06:15:18;;;;;;;;;;;;;;;;;;5048522;28;4427;-76
2023/07/05 06:17:44;;;;;;;;;;;;;;;;;;5048963;28;5143;-77
2023/07/05 06:20:10;;;;;;;;;;;;;;;;;;5048913;28;4966;-76
2023/07/05 06:22:36;;;;;;;;;;;;;;;;;;5048812;28;1173;-76
2023/07/05 06:25:01;;;;;;;;;;;;;;;;;;5048546;28;5020;-75
2023/07/05 06:27:26;;;;;;;;;;;;;;;;;;5039188;28;4487;-76
2023/07/05 06:29:52;;;;;;;;;;;;;;;;;;5048361;28;5847;-75
2023/07/05 06:32:17;;;;;;;;;;;;;;;;;;5035895;28;5103;-77
2023/07/05 06:34:42;;;;;;;;;;;;;;;;;;5047714;28;4962;-76
2023/07/05 06:37:07;;;;;;;;;;;;;;;;;;5048418;28;5188;-76
2023/07/05 06:39:33;;;;;;;;;;;;;;;;;;5048087;28;4439;-76
2023/07/05 06:41:58;;;;;;;;;;;;;;;;;;5043039;28;4529;-76
2023/07/05 06:44:23;;;;;;;;;;;;;;;;;;5046832;28;4482;-76
2023/07/05 06:46:49;;;;;;;;;;;;;;;;;;5048970;28;1469;-76
2023/07/05 06:49:15;;;;;;;;;;;;;;;;;;5048291;28;4997;-75
2023/07/05 06:51:40;;;;;;;;;;;;;;;;;;5048095;28;4416;-75
2023/07/05 06:54:05;;;;;;;;;;;;;;;;;;5048052;28;5019;-73
2023/07/05 06:56:31;;;;;;;;;;;;;;;;;;5042173;28;5059;-75
2023/07/05 06:58:56;;;;;;;;;;;;;;;;;;5048177;28;1983;-74
2023/07/05 07:01:21;;;;;;;;;;;;;;;;;;5048087;28;4575;-74
2023/07/05 07:03:47;;;;;;;;;;;;;;;;;;5042863;28;4544;-73
2023/07/05 07:06:12;;;;;;;;;;;;;;;;;;5047224;28;5172;-74
2023/07/05 07:08:38;;;;;;;;;;;;;;;;;;5035576;28;4666;-74
2023/07/05 07:11:04;;;;;;;;;;;;;;;;;;5047584;28;4956;-74
2023/07/05 07:13:29;;;;;;;;;;;;;;;;;;5046997;28;1957;-76
2023/07/05 07:16:13;;;;;;;;;;;;;;;;;;5030868;28;4554;-75
2023/07/05 07:18:40;;;;;;;;;;;;;;;;;;5037110;28;4579;-61
2023/07/05 07:21:06;;;;;;;;;;;;;;;;;;5061314;28;4493;-63
2023/07/05 07:23:31;;;;;;;;;;;;;;;;;;5043155;28;5030;-63
2023/07/05 07:26:00;;;;;;;;;;;;;;;;;;5047129;28;3491;-62
2023/07/05 07:28:25;;;;;;;;;;;;;;;;;;5046423;28;4510;-63
2023/07/05 07:30:50;;;;;;;;;;;;;;;;;;5028688;28;4535;-64
2023/07/05 07:33:16;;;;;;;;;;;;;;;;;;5047554;28;5285;-65
2023/07/05 07:35:41;;;;;;;;;;;;;;;;;;5045420;28;5023;-62
2023/07/05 07:38:06;;;;;;;;;;;;;;;;;;5037361;28;5024;-63
2023/07/05 07:40:38;;;;;;;;;;;;;;;;;;5046318;28;1297;-63
2023/07/05 07:43:05;;;;;;;;;;;;;;;;;;5047224;28;4856;-63
2023/07/05 07:45:30;;;;;;;;;;;;;;;;;;5045456;28;4728;-64
2023/07/05 07:47:56;;;;;;;;;;;;;;;;;;5046046;28;4474;-65
2023/07/05 07:50:21;;;;;;;;;;;;;;;;;;5047830;28;4962;-65
2023/07/05 07:52:47;;;;;;;;;;;;;;;;;;5045650;28;3229;-64
2023/07/05 07:55:12;;;;;;;;;;;;;;;;;;5027732;28;4938;-61
2023/07/05 07:57:37;;;;;;;;;;;;;;;;;;5047219;28;4536;-65
2023/07/05 08:00:03;;;;;;;;;;;;;;;;;;5047268;28;5146;-65
2023/07/05 08:02:29;;;;;;;;;;;;;;;;;;5047737;28;4893;-65
2023/07/05 08:04:54;;;;;;;;;;;;;;;;;;5046897;28;1414;-64
2023/07/05 08:07:19;;;;;;;;;;;;;;;;;;5047752;28;4641;-66
2023/07/05 08:09:49;;;;;;;;;;;;;;;;;;5048824;28;4616;-64
2023/07/05 08:12:15;;;;;;;;;;;;;;;;;;5045978;28;4598;-63
2023/07/05 08:14:40;;;;;;;;;;;;;;;;;;5041110;28;4899;-64
2023/07/05 08:17:05;;;;;;;;;;;;;;;;;;5047021;28;4644;-62
2023/07/05 08:19:31;;;;;;;;;;;;;;;;;;5046195;28;3309;-64
2023/07/05 08:21:57;;;;;;;;;;;;;;;;;;5046906;28;4444;-64
2023/07/05 08:24:22;;;;;;;;;;;;;;;;;;5044664;28;4549;-64
2023/07/05 08:26:48;;;;;;;;;;;;;;;;;;5043474;28;4537;-63
2023/07/05 08:29:13;;;;;;;;;;;;;;;;;;5042251;28;4760;-64
2023/07/05 08:31:39;;;;;;;;;;;;;;;;;;5047207;28;1162;-63
2023/07/05 08:34:04;;;;;;;;;;;;;;;;;;5044511;28;5019;-62
2023/07/05 08:36:34;;;;;;;;;;;;;;;;;;5045409;28;4678;-64
2023/07/05 08:39:03;;;;;;;;;;;;;;;;;;5063241;28;5221;-64
2023/07/05 08:41:31;;;;;;;;;;;;;;;;;;5060936;28;5292;-63
2023/07/05 08:44:03;;;;;;;;;;;;;;;;;;5046319;28;3170;-63
2023/07/05 08:46:28;;;;;;;;;;;;;;;;;;5047132;28;4481;-63
2023/07/05 08:49:00;;;;;;;;;;;;;;;;;;5049772;28;4538;-65
2023/07/05 08:51:25;;;;;;;;;;;;;;;;;;5067549;28;4959;-65
2023/07/05 08:53:55;;;;;;;;;;;;;;;;;;5050108;28;5190;-65
2023/07/05 08:56:28;;;;;;;;;;;;;;;;;;5047148;28;5242;-63
2023/07/05 08:59:00;;;;;;;;;;;;;;;;;;5062052;28;1971;-63
2023/07/05 09:01:25;;;;;;;;;;;;;;;;;;5059736;28;4617;-63
2023/07/05 09:03:51;;;;;;;;;;;;;;;;;;5047197;28;4843;-63
2023/07/05 09:06:20;;;;;;;;;;;;;;;;;;5064146;28;4604;-63
2023/07/05 09:09:00;;;;;;;;;;;;;;;;;;5049952;28;4435;-63
2023/07/05 09:11:25;;;;;;;;;;;;;;;;;;5048112;28;4977;-63
2023/07/05 09:13:51;;;;;;;;;;;;;;;;;;5050172;28;1129;-63
2023/07/05 09:16:31;;;;;;;;;;;;;;;;;;5064595;28;4955;-64
2023/07/05 09:19:00;;;;;;;;;;;;;;;;;;5049668;28;4924;-63
2023/07/05 09:21:25;;;;;;;;;;;;;;;;;;5049461;28;4953;-62
2023/07/05 09:23:51;;;;;;;;;;;;;;;;;;5047796;28;4905;-61
2023/07/05 09:26:35;;;;;;;;;;;;;;;;;;5064282;28;4444;-63
2023/07/05 09:29:03;;;;;;;;;;;;;;;;;;5043384;28;1183;-62
2023/07/05 09:31:29;;;;;;;;;;;;;;;;;;5031251;28;4740;-62
2023/07/05 09:34:13;;;;;;;;;;;;;;;;;;5048834;28;5098;-63
2023/07/05 09:36:38;;;;;;;;;;;;;;;;;;5048142;28;5059;-63
2023/07/05 09:39:07;;;;;;;;;;;;;;;;;;5030919;28;5063;-62
2023/07/05 09:41:39;;;;;;;;;;;;;;;;;;5062746;28;5021;-62
2023/07/05 09:44:05;;;;;;;;;;;;;;;;;;5043180;28;5018;-61
2023/07/05 09:46:30;;;;;;;;;;;;;;;;;;5048033;28;1222;-62
2023/07/05 09:48:56;;;;;;;;;;;;;;;;;;5058168;28;5063;-62
2023/07/05 09:51:22;;;;;;;;;;;;;;;;;;5048749;28;4862;-62
2023/07/05 09:53:51;;;;;;;;;;;;;;;;;;5049105;28;5035;-62
2023/07/05 09:56:18;;;;;;;;;;;;;;;;;;5063760;28;4594;-62
2023/07/05 09:58:44;;;;;;;;;;;;;;;;;;5039858;28;2003;-62
2023/07/05 10:01:21;;;;;;;;;;;;;;;;;;5063576;28;4423;-63
2023/07/05 10:03:57;;;;;;;;;;;;;;;;;;5048355;28;5034;-63
2023/07/05 10:06:23;;;;;;;;;;;;;;;;;;5048152;28;5053;-63
2023/07/05 10:08:49;;;;;;;;;;;;;;;;;;5048352;28;4998;-63
2023/07/05 10:11:24;;;;;;;;;;;;;;;;;;5063644;28;5087;-63
2023/07/05 10:14:00;;;;;;;;;;;;;;;;;;5040339;28;1388;-63
2023/07/05 10:16:26;;;;;;;;;;;;;;;;;;5048447;28;4422;-63
2023/07/05 10:18:51;;;;;;;;;;;;;;;;;;5063336;28;5074;-63
2023/07/05 10:21:20;;;;;;;;;;;;;;;;;;5048478;28;4991;-63
2023/07/05 10:23:46;;;;;;;;;;;;;;;;;;5048368;28;4803;-63
2023/07/05 10:26:12;;;;;;;;;;;;;;;;;;5047061;28;4636;-62
2023/07/05 10:28:37;;;;;;;;;;;;;;;;;;5046994;28;2460;-63
2023/07/05 10:31:04;;;;;;;;;;;;;;;;;;5061961;28;5049;-63
2023/07/05 10:33:30;;;;;;;;;;;;;;;;;;5044382;28;4490;-63
2023/07/05 10:36:04;;;;;;;;;;;;;;;;;;5045865;28;5097;-63
2023/07/05 10:38:30;;;;;;;;;;;;;;;;;;5047421;28;4474;-63
2023/07/05 10:41:00;;;;;;;;;;;;;;;;;;5048008;28;1312;-63
2023/07/05 10:43:27;;;;;;;;;;;;;;;;;;5064954;28;4414;-63
2023/07/05 10:45:52;;;;;;;;;;;;;;;;;;5030613;28;4615;-63
2023/07/05 10:48:22;;;;;;;;;;;;;;;;;;5057750;28;4455;-63
2023/07/05 10:50:48;;;;;;;;;;;;;;;;;;5044599;28;4550;-63
2023/07/05 10:53:14;;;;;;;;;;;;;;;;;;5061352;28;5099;-62
2023/07/05 10:55:42;;;;;;;;;;;;;;;;;;5061943;28;3129;-61
2023/07/05 10:58:16;;;;;;;;;;;;;;;;;;5047957;28;4443;-61
2023/07/05 11:00:43;;;;;;;;;;;;;;;;;;5045633;28;5141;-60
2023/07/05 11:03:16;;;;;;;;;;;;;;;;;;5047527;28;5252;-61
2023/07/05 11:05:45;;;;;;;;;;;;;;;;;;5062460;28;4982;-60
2023/07/05 11:08:23;;;;;;;;;;;;;;;;;;5045163;28;5137;-60
2023/07/05 11:10:48;;;;;;;;;;;;;;;;;;5052656;28;1220;-60
2023/07/05 11:13:14;;;;;;;;;;;;;;;;;;5062323;28;4956;-60
2023/07/05 11:15:40;;;;;;;;;;;;;;;;;;5047841;28;4428;-60
2023/07/05 11:18:07;;;;;;;;;;;;;;;;;;5048105;28;5109;-59
2023/07/05 11:20:36;;;;;;;;;;;;;;;;;;5031183;28;4867;-60
2023/07/05 11:23:01;;;;;;;;;;;;;;;;;;5045087;28;3269;-60
2023/07/05 11:25:46;;;;;;;;;;;;;;;;;;5046388;28;4995;-60
2023/07/05 11:28:29;;;;;;;;;;;;;;;;;;5033055;28;5075;-60
2023/07/05 11:30:55;;;;;;;;;;;;;;;;;;5045718;28;4571;-60
2023/07/05 11:33:22;;;;;;;;;;;;;;;;;;5047054;28;4533;-60
2023/07/05 11:35:52;;;;;;;;;;;;;;;;;;5046641;28;5017;-60
2023/07/05 11:38:35;;;;;;;;;;;;;;;;;;5028399;28;5055;-60
2023/07/05 11:41:01;;;;;;;;;;;;;;;;;;5047882;28;1140;-60
2023/07/05 11:43:32;;;;;;;;;;;;;;;;;;5050649;28;4436;-60
2023/07/05 11:45:57;;;;;;;;;;;;;;;;;;5039985;28;4944;-61
2023/07/05 11:48:36;;;;;;;;;;;;;;;;;;5047125;28;4887;-59
2023/07/05 11:51:01;;;;;;;;;;;;;;;;;;5044829;28;4657;-59
2023/07/05 11:53:26;;;;;;;;;;;;;;;;;;5062511;28;5104;-59
2023/07/05 11:55:51;;;;;;;;;;;;;;;;;;5014135;28;1404;-59
2023/07/05 11:58:24;;;;;;;;;;;;;;;;;;5061117;28;4819;-59
2023/07/05 12:00:54;;;;;;;;;;;;;;;;;;5040583;28;4560;-59
2023/07/05 12:03:21;;;;;;;;;;;;;;;;;;5051518;28;4691;-59
2023/07/05 12:05:53;;;;;;;;;;;;;;;;;;5064426;28;5108;-61
2023/07/05 12:08:19;;;;;;;;;;;;;;;;;;5047136;28;5328;-60
2023/07/05 12:10:51;;;;;;;;;;;;;;;;;;5028282;28;3185;-61
2023/07/05 12:13:21;;;;;;;;;;;;;;;;;;5043639;28;4987;-61
2023/07/05 12:15:46;;;;;;;;;;;;;;;;;;5046579;28;4906;-61
2023/07/05 12:18:12;;;;;;;;;;;;;;;;;;5027913;28;5018;-62
2023/07/05 12:20:38;;;;;;;;;;;;;;;;;;5062790;28;5121;-61
2023/07/05 12:23:07;;;;;;;;;;;;;;;;;;5033301;28;5112;-61
2023/07/05 12:25:32;;;;;;;;;;;;;;;;;;5052535;28;1100;-61
2023/07/05 12:28:00;;;;;;;;;;;;;;;;;;5050019;28;5158;-61
2023/07/05 12:30:25;;;;;;;;;;;;;;;;;;5050283;28;5015;-62
2023/07/05 12:32:51;;;;;;;;;;;;;;;;;;5048929;28;5378;-62
2023/07/05 12:35:21;;;;;;;;;;;;;;;;;;5050012;28;5112;-62
2023/07/05 12:37:50;;;;;;;;;;;;;;;;;;5051648;28;2156;-62
2023/07/05 12:40:16;;;;;;;;;;;;;;;;;;5051013;28;4799;-62
2023/07/05 12:42:46;;;;;;;;;;;;;;;;;;5050570;28;4977;-63
2023/07/05 12:45:11;;;;;;;;;;;;;;;;;;5050221;28;4997;-62
2023/07/05 12:47:37;;;;;;;;;;;;;;;;;;5052371;28;4499;-62
2023/07/05 12:50:03;;;;;;;;;;;;;;;;;;5050733;28;1310;-62
2023/07/05 12:52:28;;;;;;;;;;;;;;;;;;5049831;28;4911;-63
2023/07/05 12:54:53;;;;;;;;;;;;;;;;;;5050427;28;4425;-63
2023/07/05 12:57:20;;;;;;;;;;;;;;;;;;5050500;28;4973;-69
2023/07/05 12:59:45;;;;;;;;;;;;;;;;;;5049919;28;4684;-70
2023/07/05 13:02:13;;;;;;;;;;;;;;;;;;5030100;28;5054;-66
2023/07/05 13:04:41;;;;;;;;;;;;;;;;;;5049614;28;3342;-65
2023/07/05 13:07:06;;;;;;;;;;;;;;;;;;5061619;28;4631;-66
2023/07/05 13:09:32;;;;;;;;;;;;;;;;;;5063569;28;5001;-66
2023/07/05 13:11:58;;;;;;;;;;;;;;;;;;5064919;28;4739;-65
2023/07/05 13:14:24;;;;;;;;;;;;;;;;;;5047732;28;5140;-66
2023/07/05 13:16:56;;;;;;;;;;;;;;;;;;5048203;28;3229;-71
2023/07/05 13:19:21;;;;;;;;;;;;;;;;;;5045029;28;5314;-72
2023/07/05 13:21:47;;;;;;;;;;;;;;;;;;5047521;28;4880;-72
2023/07/05 13:24:19;;;;;;;;;;;;;;;;;;5047075;28;5092;-70
2023/07/05 13:26:44;;;;;;;;;;;;;;;;;;5045109;28;5235;-71
2023/07/05 13:29:20;;;;;;;;;;;;;;;;;;5047660;28;5128;-71
2023/07/05 13:31:49;;;;;;;;;;;;;;;;;;5062582;28;3233;-71
2023/07/05 13:34:14;;;;;;;;;;;;;;;;;;5047316;28;5066;-72
2023/07/05 13:36:39;;;;;;;;;;;;;;;;;;5047477;28;4718;-70
2023/07/05 13:39:05;;;;;;;;;;;;;;;;;;5053979;28;5194;-71
2023/07/05 13:41:30;;;;;;;;;;;;;;;;;;5041459;28;5803;-72
2023/07/05 13:43:56;;;;;;;;;;;;;;;;;;5023867;28;2921;-71
2023/07/05 13:46:21;;;;;;;;;;;;;;;;;;5026305;28;5758;-71
2023/07/05 13:48:47;;;;;;;;;;;;;;;;;;5029365;28;5029;-71
2023/07/05 13:51:16;;;;;;;;;;;;;;;;;;5017299;28;5083;-71
2023/07/05 13:53:42;;;;;;;;;;;;;;;;;;5010006;28;5150;-69
2023/07/05 13:56:07;;;;;;;;;;;;;;;;;;5023626;28;5051;-62
2023/07/05 13:58:33;;;;;;;;;;;;;;;;;;5024071;28;3405;-69
2023/07/05 14:00:58;;;;;;;;;;;;;;;;;;5041993;28;4876;-69
2023/07/05 14:03:23;;;;;;;;;;;;;;;;;;5035575;28;4669;-69
2023/07/05 14:05:49;;;;;;;;;;;;;;;;;;5045182;28;5240;-70
2023/07/05 14:08:14;;;;;;;;;;;;;;;;;;5050646;28;5161;-68
2023/07/05 14:10:40;;;;;;;;;;;;;;;;;;5048195;28;3008;-69
2023/07/05 14:13:08;;;;;;;;;;;;;;;;;;5063146;28;5021;-68
2023/07/05 14:15:34;;;;;;;;;;;;;;;;;;5048096;28;5113;-69
2023/07/05 14:17:59;;;;;;;;;;;;;;;;;;5048124;28;5133;-67
2023/07/05 14:20:25;;;;;;;;;;;;;;;;;;5040996;28;5153;-67
2023/07/05 14:22:51;;;;;;;;;;;;;;;;;;5064204;28;2944;-68
2023/07/05 14:25:20;;;;;;;;;;;;;;;;;;5063477;28;4966;-66
2023/07/05 14:27:45;;;;;;;;;;;;;;;;;;5044909;28;4826;-68
2023/07/05 14:30:10;;;;;;;;;;;;;;;;;;5044820;28;5097;-75
2023/07/05 14:32:36;;;;;;;;;;;;;;;;;;5047050;28;4775;-74
2023/07/05 14:35:01;;;;;;;;;;;;;;;;;;5040815;28;4958;-66
2023/07/05 14:37:28;;;;;;;;;;;;;;;;;;5047621;28;4991;-64
2023/07/05 14:39:53;;;;;;;;;;;;;;;;;;5041319;28;5010;-67
2023/07/05 14:42:19;;;;;;;;;;;;;;;;;;5042921;28;5098;-68
2023/07/05 14:44:44;;;;;;;;;;;;;;;;;;5047748;28;4420;-67
2023/07/05 14:47:09;;;;;;;;;;;;;;;;;;5043029;28;5091;-67
2023/07/05 14:49:35;;;;;;;;;;;;;;;;;;5048426;28;3682;-66
2023/07/05 14:52:00;;;;;;;;;;;;;;;;;;5046279;28;4974;-67
2023/07/05 14:54:25;;;;;;;;;;;;;;;;;;5046756;28;4846;-68
2023/07/05 14:56:51;;;;;;;;;;;;;;;;;;5042807;28;5797;-66
2023/07/05 14:59:20;;;;;;;;;;;;;;;;;;5046654;28;5269;-67
2023/07/05 15:01:45;;;;;;;;;;;;;;;;;;5045728;28;3297;-65
2023/07/05 15:04:11;;;;;;;;;;;;;;;;;;5053930;28;5157;-65
2023/07/05 15:06:36;;;;;;;;;;;;;;;;;;5039161;28;5146;-70
2023/07/05 15:09:02;;;;;;;;;;;;;;;;;;5043240;28;5167;-67
2023/07/05 15:11:27;;;;;;;;;;;;;;;;;;5045209;28;4565;-68
2023/07/05 15:13:52;;;;;;;;;;;;;;;;;;5027980;28;3025;-66
2023/07/05 15:16:19;;;;;;;;;;;;;;;;;;5031168;28;4583;-66
2023/07/05 15:18:45;;;;;;;;;;;;;;;;;;5041445;28;4493;-67
2023/07/05 15:21:13;;;;;;;;;;;;;;;;;;5036906;28;4553;-66
2023/07/05 15:23:39;;;;;;;;;;;;;;;;;;5026915;28;4958;-66
2023/07/05 15:26:05;;;;;;;;;;;;;;;;;;5026470;28;4654;-71
2023/07/05 15:28:31;;;;;;;;;;;;;;;;;;5010328;28;3240;-71
2023/07/05 15:30:56;;;;;;;;;;;;;;;;;;5030901;28;5210;-66
2023/07/05 15:33:21;;;;;;;;;;;;;;;;;;5038164;28;4635;-62
2023/07/05 15:35:47;;;;;;;;;;;;;;;;;;5045505;28;5185;-69
2023/07/05 15:38:13;;;;;;;;;;;;;;;;;;5045811;28;5066;-63
2023/07/05 15:40:39;;;;;;;;;;;;;;;;;;5046004;28;3249;-65
2023/07/05 15:43:04;;;;;;;;;;;;;;;;;;5043460;28;5091;-65
2023/07/05 15:45:30;;;;;;;;;;;;;;;;;;5042154;28;4611;-63
2023/07/05 15:47:56;;;;;;;;;;;;;;;;;;5046103;28;4606;-66
2023/07/05 15:50:21;;;;;;;;;;;;;;;;;;5024151;28;4913;-64
2023/07/05 15:52:48;;;;;;;;;;;;;;;;;;5028495;28;3404;-65
2023/07/05 15:55:13;;;;;;;;;;;;;;;;;;5030208;28;4982;-64
2023/07/05 15:57:39;;;;;;;;;;;;;;;;;;5048918;28;5139;-65
2023/07/05 16:00:08;;;;;;;;;;;;;;;;;;5039380;28;5117;-65
2023/07/05 16:02:56;;;;;;;;;;;;;;;;;;5029598;28;5150;-65
2023/07/05 16:05:22;;;;;;;;;;;;;;;;;;5008083;28;5150;-64
2023/07/05 16:07:48;;;;;;;;;;;;;;;;;;5032064;28;3186;-65
2023/07/05 16:10:16;;;;;;;;;;;;;;;;;;5029370;28;5061;-64
2023/07/05 16:12:41;;;;;;;;;;;;;;;;;;5042530;28;5220;-65
2023/07/05 16:15:07;;;;;;;;;;;;;;;;;;5040929;28;4998;-63
2023/07/05 16:17:32;;;;;;;;;;;;;;;;;;5027549;28;4846;-65
2023/07/05 16:19:57;;;;;;;;;;;;;;;;;;5028611;28;3402;-65
2023/07/05 16:22:22;;;;;;;;;;;;;;;;;;5029825;28;4422;-62
2023/07/05 16:24:48;;;;;;;;;;;;;;;;;;5032437;28;5064;-63
2023/07/05 16:27:15;;;;;;;;;;;;;;;;;;5024474;28;5043;-64
2023/07/05 16:29:40;;;;;;;;;;;;;;;;;;5029302;28;5105;-63
2023/07/05 16:32:06;;;;;;;;;;;;;;;;;;5030250;28;5100;-63
2023/07/05 16:34:31;;;;;;;;;;;;;;;;;;5054567;28;4884;-64
2023/07/05 16:36:56;;;;;;;;;;;;;;;;;;5032804;28;4975;-64
2023/07/05 16:39:22;;;;;;;;;;;;;;;;;;5027839;28;5018;-64
2023/07/05 16:41:48;;;;;;;;;;;;;;;;;;5026502;28;4943;-64
2023/07/05 16:44:15;;;;;;;;;;;;;;;;;;5031397;28;5031;-64
2023/07/05 16:46:41;;;;;;;;;;;;;;;;;;5037853;28;1698;-64
2023/07/05 16:49:06;;;;;;;;;;;;;;;;;;5050124;28;4952;-64
2023/07/05 16:51:31;;;;;;;;;;;;;;;;;;5050091;28;4857;-64
2023/07/05 16:53:56;;;;;;;;;;;;;;;;;;5046095;28;4738;-65
2023/07/05 16:56:22;;;;;;;;;;;;;;;;;;5065482;28;4701;-64
2023/07/05 16:58:50;;;;;;;;;;;;;;;;;;5043304;28;3183;-62